createdAt,value
2022-10-17T00:01:23.395Z,28.07
2022-10-17T00:06:31.223Z,23.03
2022-10-17T00:11:39.082Z,20.93
2022-10-17T00:16:46.934Z,23.77
2022-10-17T00:21:54.829Z,23.47
2022-10-17T00:27:02.653Z,23.83
2022-10-17T00:32:10.491Z,24.53
2022-10-17T00:37:18.485Z,24.03
2022-10-17T00:42:28.056Z,23.87
2022-10-17T00:47:36.800Z,24.90
2022-10-17T00:52:44.992Z,26.43
2022-10-17T00:57:52.987Z,24.97
2022-10-17T01:03:00.798Z,25.23
2022-10-17T01:08:08.733Z,24.83
2022-10-17T01:13:19.707Z,23.47
2022-10-17T01:18:31.191Z,22.53
2022-10-17T01:23:42.147Z,22.97
2022-10-17T01:28:53.063Z,22.03
2022-10-17T01:39:17.249Z,23.73
2022-10-17T01:44:28.191Z,24.30
2022-10-17T01:49:36.640Z,24.80
2022-10-17T01:54:46.605Z,22.53
2022-10-17T01:59:54.381Z,23.57
2022-10-17T02:05:02.486Z,22.17
2022-10-17T02:10:13.890Z,20.00
2022-10-17T02:15:24.867Z,21.57
2022-10-17T02:20:35.996Z,22.07
2022-10-17T02:25:47.064Z,20.47
2022-10-17T02:30:58.033Z,21.63
2022-10-17T02:36:09.073Z,24.97
2022-10-17T02:41:18.930Z,24.67
2022-10-17T02:46:27.004Z,25.13
2022-10-17T02:51:38.818Z,26.17
2022-10-17T02:56:50.204Z,23.90
2022-10-17T03:01:57.977Z,23.83
2022-10-17T03:07:05.788Z,23.17
2022-10-17T03:12:13.621Z,24.93
2022-10-17T03:17:21.446Z,23.60
2022-10-17T03:22:29.715Z,23.33
2022-10-17T03:27:37.848Z,21.03
2022-10-17T03:32:45.675Z,20.53
2022-10-17T03:37:53.499Z,20.60
2022-10-17T03:43:01.412Z,22.23
2022-10-17T03:48:09.180Z,22.27
2022-10-17T03:53:17.059Z,23.30
2022-10-17T03:58:24.853Z,25.93
2022-10-17T04:03:32.641Z,25.33
2022-10-17T04:08:40.518Z,23.50
2022-10-17T04:13:48.446Z,23.37
2022-10-17T04:18:57.204Z,23.27
2022-10-17T04:24:05.042Z,22.37
2022-10-17T04:29:12.929Z,23.80
2022-10-17T04:34:21.312Z,24.67
2022-10-17T04:39:29.169Z,24.40
2022-10-17T04:44:37.806Z,23.37
2022-10-17T04:49:45.768Z,23.57
2022-10-17T04:54:53.664Z,24.77
2022-10-17T05:00:02.696Z,25.10
2022-10-17T05:05:11.171Z,24.77
2022-10-17T05:10:19.910Z,24.30
2022-10-17T05:15:27.755Z,24.53
2022-10-17T05:20:35.568Z,23.70
2022-10-17T05:25:43.404Z,28.27
2022-10-17T05:30:51.345Z,28.27
2022-10-17T05:35:59.599Z,27.33
2022-10-17T05:41:07.951Z,19.87
2022-10-17T05:46:16.292Z,20.77
2022-10-17T05:51:24.140Z,20.83
2022-10-17T05:56:33.024Z,18.87
2022-10-17T06:01:40.932Z,21.23
2022-10-17T06:06:48.831Z,22.63
2022-10-17T06:11:56.707Z,25.37
2022-10-17T06:17:04.679Z,26.17
2022-10-17T06:22:12.609Z,29.47
2022-10-17T06:27:20.687Z,29.43
2022-10-17T06:32:29.381Z,29.37
2022-10-17T06:37:38.256Z,25.83
2022-10-17T06:42:46.338Z,34.00
2022-10-17T06:47:54.359Z,29.27
2022-10-17T06:53:02.280Z,30.17
2022-10-17T06:58:11.838Z,31.57
2022-10-17T07:03:22.722Z,32.33
2022-10-17T07:08:34.309Z,32.17
2022-10-17T07:13:42.399Z,29.93
2022-10-17T07:19:12.376Z,29.17
2022-10-17T07:24:20.250Z,30.93
2022-10-17T07:29:28.176Z,28.90
2022-10-17T07:34:36.801Z,26.67
2022-10-17T07:39:44.636Z,26.63
2022-10-17T07:44:52.459Z,24.77
2022-10-17T07:50:00.406Z,22.70
2022-10-17T07:55:09.058Z,21.80
2022-10-17T08:00:18.525Z,20.83
2022-10-17T08:05:26.414Z,18.40
2022-10-17T08:10:34.465Z,18.20
2022-10-17T08:15:42.749Z,19.13
2022-10-17T08:20:50.564Z,18.07
2022-10-17T08:26:01.177Z,17.60
2022-10-17T08:31:10.733Z,17.13
2022-10-17T08:36:20.234Z,18.03
2022-10-17T08:41:31.366Z,17.37
2022-10-17T08:46:40.762Z,17.77
2022-10-17T08:51:57.611Z,16.53
2022-10-17T08:57:05.822Z,17.07
2022-10-17T09:02:17.304Z,15.03
2022-10-17T09:07:28.764Z,15.20
2022-10-17T09:12:39.920Z,15.20
2022-10-17T09:17:52.707Z,15.67
2022-10-17T09:23:02.879Z,16.13
2022-10-17T09:28:15.233Z,15.67
2022-10-17T09:33:35.149Z,15.90
2022-10-17T09:38:39.003Z,15.90
2022-10-17T09:43:47.944Z,14.77
2022-10-17T09:48:58.910Z,14.07
2022-10-17T09:54:08.833Z,13.33
2022-10-17T09:59:16.723Z,12.90
2022-10-17T10:04:30.211Z,12.60
2022-10-17T10:09:38.152Z,12.97
2022-10-17T10:14:47.355Z,12.97
2022-10-17T10:19:55.373Z,13.37
2022-10-17T10:25:06.372Z,12.40
2022-10-17T10:30:17.364Z,11.93
2022-10-17T10:35:28.311Z,12.90
2022-10-17T10:40:39.268Z,12.90
2022-10-17T10:45:48.971Z,12.17
2022-10-17T10:50:58.976Z,11.97
2022-10-17T10:56:09.966Z,13.43
2022-10-17T11:01:22.087Z,10.73
2022-10-17T11:06:30.865Z,11.90
2022-10-17T11:11:41.879Z,12.53
2022-10-17T11:16:53.382Z,12.77
2022-10-17T11:22:04.451Z,12.23
2022-10-17T11:27:13.764Z,12.80
2022-10-17T11:32:25.108Z,11.97
2022-10-17T11:37:35.939Z,13.60
2022-10-17T11:42:46.929Z,13.20
2022-10-17T11:47:57.837Z,12.77
2022-10-17T11:53:08.831Z,12.10
2022-10-17T11:58:19.832Z,12.17
2022-10-17T12:03:30.799Z,13.40
2022-10-17T12:08:41.751Z,12.90
2022-10-17T12:13:53.053Z,12.47
2022-10-17T12:24:21.761Z,13.43
2022-10-17T12:29:30.429Z,13.07
2022-10-17T12:34:38.370Z,13.17
2022-10-17T12:39:46.275Z,13.13
2022-10-17T12:44:54.285Z,13.47
2022-10-17T12:50:02.204Z,13.53
2022-10-17T12:55:14.874Z,12.73
2022-10-17T13:00:26.681Z,12.73
2022-10-17T13:05:36.702Z,12.87
2022-10-17T13:10:49.121Z,13.13
2022-10-17T13:15:56.383Z,13.00
2022-10-17T13:21:07.255Z,13.00
2022-10-17T13:26:18.867Z,13.83
2022-10-17T13:31:29.839Z,12.80
2022-10-17T13:36:40.956Z,12.80
2022-10-17T13:41:49.227Z,12.87
2022-10-17T13:46:57.563Z,14.43
2022-10-17T13:52:06.239Z,14.30
2022-10-17T13:57:17.636Z,12.80
2022-10-17T14:02:27.813Z,13.03
2022-10-17T14:08:05.813Z,12.27
2022-10-17T14:12:51.044Z,12.70
2022-10-17T14:18:07.314Z,11.87
2022-10-17T14:23:22.933Z,13.23
2022-10-17T14:28:29.990Z,12.70
2022-10-17T14:33:41.500Z,13.23
2022-10-17T14:38:51.369Z,13.67
2022-10-17T14:44:03.025Z,13.37
2022-10-17T14:49:14.293Z,12.97
2022-10-17T14:54:27.327Z,13.13
2022-10-17T14:59:53.317Z,12.93
2022-10-17T15:04:46.709Z,13.77
2022-10-17T15:09:55.021Z,12.47
2022-10-17T15:15:02.962Z,12.53
2022-10-17T15:20:14.340Z,13.20
2022-10-17T15:25:22.398Z,15.93
2022-10-17T15:30:33.216Z,15.17
2022-10-17T15:35:43.619Z,12.97
2022-10-17T15:40:52.296Z,13.43
2022-10-17T15:46:01.704Z,13.90
2022-10-17T15:51:10.165Z,15.97
2022-10-17T15:56:21.338Z,16.73
2022-10-17T16:01:31.574Z,17.47
2022-10-17T16:06:40.103Z,18.57
2022-10-17T16:11:48.541Z,16.80
2022-10-17T16:16:56.877Z,16.20
2022-10-17T16:22:06.536Z,15.93
2022-10-17T16:27:14.899Z,14.70
2022-10-17T16:32:22.755Z,13.53
2022-10-17T16:37:30.873Z,15.40
2022-10-17T16:42:39.472Z,15.13
2022-10-17T16:47:48.748Z,13.60
2022-10-17T16:52:56.813Z,13.07
2022-10-17T16:58:04.624Z,14.23
2022-10-17T17:03:13.649Z,14.90
2022-10-17T17:08:21.934Z,15.53
2022-10-17T17:13:31.463Z,14.73
2022-10-17T17:18:39.592Z,14.30
2022-10-17T17:23:47.680Z,10.10
2022-10-17T17:28:55.815Z,9.00
2022-10-17T17:34:04.139Z,8.17
2022-10-17T17:39:13.966Z,7.80
2022-10-17T17:44:23.108Z,7.77
2022-10-17T17:49:31.147Z,7.17
2022-10-17T17:54:40.949Z,7.93
2022-10-17T17:59:50.384Z,9.20
2022-10-17T18:04:59.687Z,8.30
2022-10-17T18:10:08.805Z,6.87
2022-10-17T18:15:17.810Z,6.63
2022-10-17T18:20:28.163Z,6.77
2022-10-17T18:25:42.166Z,6.23
2022-10-17T18:30:51.834Z,6.10
2022-10-17T18:36:06.064Z,6.30
2022-10-17T18:41:16.849Z,6.13
2022-10-17T18:46:26.973Z,5.73
2022-10-17T18:51:35.202Z,6.03
2022-10-17T18:56:44.436Z,5.87
2022-10-17T19:01:52.751Z,6.20
2022-10-17T19:07:02.147Z,6.60
2022-10-17T19:12:11.251Z,6.00
2022-10-17T19:17:19.666Z,5.87
2022-10-17T19:22:28.538Z,6.50
2022-10-17T19:27:36.524Z,6.23
2022-10-17T19:32:44.513Z,6.73
2022-10-17T19:37:52.496Z,5.07
2022-10-17T19:43:00.435Z,5.07
2022-10-17T19:48:09.873Z,4.67
2022-10-17T19:53:18.447Z,4.87
2022-10-17T19:58:27.024Z,5.13
2022-10-17T20:03:34.914Z,4.50
2022-10-17T20:08:42.889Z,4.80
2022-10-17T20:13:51.960Z,5.10
2022-10-17T20:19:02.549Z,5.27
2022-10-17T20:24:12.877Z,5.30
2022-10-17T20:29:23.732Z,5.03
2022-10-17T20:34:35.781Z,4.80
2022-10-17T20:39:44.350Z,4.50
2022-10-17T20:44:52.290Z,4.10
2022-10-17T20:50:00.384Z,5.40
2022-10-17T20:55:08.469Z,5.07
2022-10-17T21:00:16.519Z,4.87
2022-10-17T21:05:24.337Z,4.47
2022-10-17T21:10:35.411Z,4.33
2022-10-17T21:15:41.768Z,4.73
2022-10-17T21:20:49.592Z,4.90
2022-10-17T21:26:00.689Z,5.07
2022-10-17T21:31:13.940Z,4.20
2022-10-17T21:36:21.865Z,5.30
2022-10-17T21:41:30.087Z,4.97
2022-10-17T21:46:38.489Z,4.40
2022-10-17T21:51:47.815Z,4.90
2022-10-17T21:56:55.763Z,4.40
2022-10-17T22:02:04.636Z,4.73
2022-10-17T22:07:12.508Z,4.63
2022-10-17T22:12:20.764Z,4.90
2022-10-17T22:17:28.906Z,4.63
2022-10-17T22:22:36.915Z,4.80
2022-10-17T22:27:45.127Z,5.00
2022-10-17T22:32:52.933Z,4.97
2022-10-17T22:38:01.544Z,5.03
2022-10-17T22:43:09.359Z,5.47
2022-10-17T22:48:17.221Z,5.40
2022-10-17T22:53:27.465Z,4.97
2022-10-17T22:58:35.886Z,4.97
2022-10-17T23:03:43.958Z,5.73
2022-10-17T23:08:52.326Z,7.00
2022-10-17T23:14:00.624Z,7.20
2022-10-17T23:19:08.621Z,5.83
2022-10-17T23:24:16.486Z,5.83
2022-10-17T23:29:24.965Z,6.20
2022-10-17T23:34:33.344Z,6.20
2022-10-17T23:39:41.177Z,7.10
2022-10-17T23:44:48.974Z,5.90
2022-10-17T23:49:57.808Z,7.30
2022-10-17T23:55:06.509Z,6.63
